.
WxDataArchive / Data Records for 2016-01-09
2016-01-08 January 2016 2016-01-10

Data Records for Saturday, 09 January 2016

Time	Temp	Chill	HIndex	Humid	Dewpt	 Wind 	HiWind	WindDir	Rain 	Barom
-----	----	-----	------	-----	-----	------	------	-------	-----	-----
00:00	45.2	45.2	45.2	97	44.4	0	3	292	0.00	29.768 
00:05	45.2	45.2	45.2	96	44.1	0	1	292	0.00	29.768 
00:10	45.2	45.2	45.2	97	44.4	0	2	292	0.00	29.768 
00:15	45.2	45.2	45.2	97	44.4	0	2	292	0.00	29.765 
00:20	45.2	45.2	45.2	96	44.1	0	2	292	0.00	29.765 
00:25	45.2	45.2	45.2	96	44.1	0	2	292	0.00	29.765 
00:30	45.2	45.2	45.2	97	44.4	0	2	292	0.00	29.767 
00:35	45.2	45.2	45.2	97	44.4	0	2	292	0.00	29.767 
00:40	45.2	45.2	45.2	96	44.1	0	1	292	0.00	29.767 
00:45	45.2	45.2	45.2	96	44.1	0	2	292	0.00	29.767 
00:50	45.2	45.2	45.2	96	44.1	0	2	292	0.00	29.767 
00:55	45.2	45.2	45.2	96	44.1	0	2	292	0.00	29.767 
01:00	45.2	45.2	45.2	96	44.1	0	2	292	0.00	29.768 
01:05	45.1	45.1	45.1	97	44.3	0	3	292	0.00	29.768 
01:10	45.1	45.1	45.1	96	44.0	0	1	292	0.00	29.768 
01:15	45.1	45.1	45.1	96	44.0	0	3	292	0.00	29.767 
01:20	44.9	44.9	44.9	96	43.8	0	1	292	0.00	29.767 
01:25	44.9	44.9	44.9	96	43.8	0	3	292	0.00	29.767 
01:30	45.1	45.1	45.1	96	44.0	0	3	270	0.00	29.767 
01:35	44.9	44.9	44.9	96	43.8	0	2	270	0.00	29.767 
01:40	44.9	44.9	44.9	96	43.8	0	1	270	0.00	29.767 
01:45	44.9	44.9	44.9	96	43.8	0	2	270	0.00	29.767 
01:50	44.9	44.9	44.9	96	43.8	0	1	270	0.00	29.767 
01:55	44.9	44.9	44.9	96	43.8	0	3	270	0.00	29.767 
02:00	44.9	44.9	44.9	96	43.8	0	1	270	0.00	29.764 
02:05	44.8	44.8	44.8	96	43.7	0	1	270	0.00	29.764 
02:10	44.8	44.8	44.8	96	43.7	0	1	270	0.00	29.764 
02:15	44.8	44.8	44.8	96	43.7	0	1	270	0.00	29.762 
02:20	44.8	44.8	44.8	96	43.7	0	1	270	0.00	29.762 
02:25	44.8	44.8	44.8	96	43.7	0	1	270	0.00	29.762 
02:30	44.8	44.8	44.8	96	43.7	0	2	270	0.00	29.762 
02:35	44.8	44.8	44.8	96	43.7	0	1	270	0.00	29.762 
02:40	44.8	44.8	44.8	96	43.7	0	1	270	0.00	29.762 
02:45	44.8	44.8	44.8	96	43.7	0	0	---	0.00	29.751 
02:50	44.8	44.8	44.8	96	43.7	0	0	---	0.00	29.751 
02:55	44.6	44.6	44.6	96	43.5	0	1	270	0.00	29.751 
03:00	44.6	44.6	44.6	96	43.5	0	0	---	0.00	29.748 
03:05	44.5	44.5	44.5	96	43.4	0	1	270	0.00	29.748 
03:10	44.6	44.6	44.6	96	43.5	0	2	270	0.00	29.748 
03:15	44.6	44.6	44.6	96	43.5	0	1	270	0.00	29.762 
03:20	44.6	44.6	44.6	96	43.5	0	1	270	0.00	29.762 
03:25	44.6	44.6	44.6	96	43.5	0	2	270	0.00	29.762 
03:30	44.6	44.6	44.6	96	43.5	0	1	270	0.00	29.771 
03:35	44.6	44.6	44.6	96	43.5	0	2	270	0.00	29.771 
03:40	44.6	44.6	44.6	96	43.5	0	2	270	0.00	29.771 
03:45	44.6	44.6	44.6	96	43.5	0	2	270	0.00	29.791 
03:50	44.6	44.6	44.6	96	43.5	0	1	270	0.00	29.791 
03:55	44.6	44.6	44.6	96	43.5	0	2	270	0.00	29.791 
04:00	44.6	44.6	44.6	96	43.5	0	3	270	0.00	29.799 
04:05	44.6	44.6	44.6	96	43.5	0	3	270	0.00	29.799 
04:10	44.6	44.6	44.6	96	43.5	0	1	270	0.00	29.799 
04:15	44.5	44.5	44.5	96	43.4	0	1	270	0.00	29.799 
04:20	44.5	44.5	44.5	96	43.4	0	2	270	0.00	29.799 
04:25	44.3	44.3	44.3	96	43.2	0	1	270	0.00	29.799 
04:30	44.3	44.3	44.3	96	43.2	0	2	270	0.00	29.789 
04:35	44.2	44.2	44.2	96	43.1	0	1	270	0.00	29.789 
04:40	44.2	44.2	44.2	96	43.1	0	2	270	0.00	29.789 
04:45	44.2	44.2	44.2	96	43.1	0	2	270	0.00	29.786 
04:50	44.2	44.2	44.2	96	43.1	0	1	270	0.00	29.786 
04:55	44.1	44.1	44.1	96	43.0	0	1	270	0.00	29.786 
05:00	44.1	44.1	44.1	96	43.0	0	1	270	0.00	29.793 
05:05	43.9	43.9	43.9	96	42.8	0	1	270	0.00	29.793 
05:10	44.1	44.1	44.1	96	43.0	0	3	270	0.00	29.793 
05:15	44.1	44.1	44.1	96	43.0	0	2	270	0.00	29.796 
05:20	44.1	44.1	44.1	96	43.0	0	2	270	0.00	29.796 
05:25	44.1	44.1	44.1	96	43.0	0	1	270	0.00	29.796 
05:30	43.9	43.9	43.9	96	42.8	0	1	270	0.00	29.799 
05:35	43.9	43.9	43.9	96	42.8	0	2	270	0.00	29.799 
05:40	43.9	43.9	43.9	96	42.8	0	3	270	0.00	29.799 
05:45	43.9	43.9	43.9	96	42.8	0	2	270	0.00	29.801 
05:50	43.9	43.9	43.9	96	42.8	0	1	270	0.00	29.801 
05:55	43.9	43.9	43.9	95	42.6	0	2	270	0.00	29.801 
06:00	43.8	43.8	43.8	95	42.5	0	2	270	0.00	29.804 
06:05	43.8	43.8	43.8	95	42.5	0	1	270	0.00	29.804 
06:10	43.8	43.8	43.8	95	42.5	0	1	270	0.00	29.804 
06:15	43.8	43.8	43.8	95	42.5	0	1	270	0.00	29.813 
06:20	43.6	43.6	43.6	95	42.3	0	1	270	0.00	29.813 
06:25	43.6	43.6	43.6	95	42.3	0	1	270	0.00	29.813 
06:30	43.6	43.6	43.6	95	42.3	0	1	270	0.00	29.819 
06:35	43.6	43.6	43.6	95	42.3	0	1	270	0.00	29.819 
06:40	43.6	43.6	43.6	95	42.3	0	2	270	0.00	29.819 
06:45	43.6	43.6	43.6	95	42.3	0	4	270	0.00	29.822 
06:50	43.6	43.6	43.6	95	42.3	0	3	270	0.00	29.822 
06:55	43.8	43.8	43.8	95	42.5	0	1	270	0.00	29.822 
07:00	43.8	43.8	43.8	94	42.2	0	1	270	0.00	29.826 
07:05	43.8	43.8	43.8	94	42.2	0	1	270	0.00	29.826 
07:10	43.8	43.8	43.8	94	42.2	0	2	270	0.00	29.826 
07:15	43.8	43.8	43.8	94	42.2	0	2	270	0.00	29.828 
07:20	43.8	43.8	43.8	94	42.2	0	1	270	0.00	29.828 
07:25	43.8	43.8	43.8	94	42.2	0	1	270	0.00	29.828 
07:30	43.6	43.6	43.6	94	42.0	0	1	270	0.00	29.830 
07:35	43.6	43.6	43.6	94	42.0	0	2	270	0.00	29.830 
07:40	43.6	43.6	43.6	94	42.0	0	2	270	0.00	29.830 
07:45	43.5	43.5	43.5	94	41.9	0	2	270	0.00	29.837 
07:50	43.5	43.5	43.5	94	41.9	0	1	270	0.00	29.837 
07:55	43.5	43.5	43.5	94	41.9	0	1	270	0.00	29.837 
08:00	43.5	43.5	43.5	93	41.6	0	2	270	0.00	29.840 
08:05	43.3	43.3	43.3	93	41.4	0	1	270	0.00	29.840 
08:10	43.3	43.3	43.3	93	41.4	0	0	---	0.00	29.840 
08:15	43.2	43.2	43.2	93	41.3	0	0	---	0.00	29.838 
08:20	43.1	43.1	43.1	93	41.2	0	0	---	0.00	29.838 
08:25	42.9	42.9	42.9	93	41.0	0	0	---	0.00	29.838 
08:30	42.9	42.9	42.9	93	41.0	0	0	---	0.00	29.834 
08:35	42.8	42.8	42.8	93	40.9	0	0	---	0.00	29.834 
08:40	42.8	42.8	42.8	93	40.9	0	0	---	0.00	29.834 
08:45	42.6	42.6	42.6	93	40.7	0	0	---	0.00	29.838 
08:50	42.8	42.8	42.8	93	40.9	0	1	270	0.00	29.838 
08:55	42.8	42.8	42.8	94	41.2	0	0	---	0.00	29.838 
09:00	42.9	42.9	42.9	94	41.3	0	0	---	0.00	29.839 
09:05	43.1	43.1	43.1	94	41.5	0	0	---	0.00	29.839 
09:10	43.2	43.2	43.2	94	41.6	0	1	270	0.00	29.839 
09:15	43.2	43.2	43.2	93	41.3	0	1	270	0.00	29.843 
09:20	43.2	43.2	43.2	93	41.3	0	1	270	0.00	29.843 
09:25	43.3	43.3	43.3	93	41.4	0	1	270	0.00	29.843 
09:30	43.3	43.3	43.3	93	41.4	0	1	270	0.00	29.839 
09:35	43.5	43.5	43.5	93	41.6	0	1	270	0.00	29.839 
09:40	43.6	43.6	43.6	93	41.7	0	1	270	0.00	29.839 
09:45	43.8	43.8	43.8	93	41.9	0	0	---	0.00	29.837 
09:50	43.9	43.9	43.9	93	42.0	0	0	---	0.01	29.837 
09:55	44.2	44.2	44.2	93	42.3	0	0	---	0.00	29.837 
10:00	44.3	44.3	44.3	93	42.4	0	2	270	0.00	29.843 
10:05	44.5	44.5	44.5	93	42.6	0	1	270	0.00	29.843 
10:10	44.6	44.6	44.6	93	42.7	0	1	270	0.00	29.843 
10:15	44.6	44.6	44.6	92	42.4	0	2	270	0.00	29.845 
10:20	44.5	44.5	44.5	92	42.3	0	3	270	0.00	29.845 
10:25	44.5	44.5	44.5	92	42.3	0	3	270	0.00	29.845 
10:30	44.3	44.3	44.3	91	41.8	0	3	270	0.00	29.846 
10:35	44.3	44.3	44.3	91	41.8	0	2	270	0.00	29.846 
10:40	44.3	44.3	44.3	90	41.6	1	3	248	0.00	29.846 
10:45	44.3	44.3	44.3	90	41.6	0	1	248	0.00	29.847 
10:50	44.6	44.6	44.6	90	41.9	0	1	248	0.00	29.847 
10:55	44.6	44.6	44.6	89	41.6	0	2	248	0.00	29.847 
11:00	44.9	44.9	44.9	89	41.9	0	1	248	0.00	29.842 
11:05	45.1	45.1	45.1	89	42.1	0	1	248	0.00	29.842 
11:10	45.4	45.4	45.4	88	42.1	0	2	248	0.00	29.842 
11:15	45.5	45.5	45.5	88	42.2	0	2	248	0.00	29.831 
11:20	45.7	45.7	45.7	87	42.1	0	1	248	0.00	29.831 
11:25	45.7	45.7	45.7	86	41.8	0	1	248	0.00	29.831 
11:30	45.7	45.7	45.7	85	41.5	0	4	315	0.00	29.823 
11:35	45.7	45.7	45.7	85	41.5	0	1	315	0.00	29.823 
11:40	45.7	45.7	45.7	84	41.1	0	1	315	0.00	29.823 
11:45	45.8	45.8	45.8	84	41.2	0	1	315	0.00	29.811 
11:50	45.8	45.8	45.8	84	41.2	0	1	315	0.00	29.811 
11:55	46.0	46.0	46.0	83	41.1	0	1	315	0.00	29.811 
12:00	46.2	46.2	46.2	83	41.3	0	0	---	0.00	29.820 
12:05	46.4	46.4	46.4	83	41.5	0	0	---	0.00	29.820 
12:10	46.5	46.5	46.5	83	41.6	0	1	315	0.00	29.820 
12:15	46.5	46.5	46.5	82	41.3	0	2	315	0.00	29.823 
12:20	46.5	46.5	46.5	81	41.0	0	2	315	0.00	29.823 
12:25	46.5	46.5	46.5	81	41.0	0	1	315	0.00	29.823 
12:30	46.5	46.5	46.5	82	41.3	0	3	338	0.00	29.828 
12:35	46.5	46.5	46.5	83	41.6	0	1	45	0.00	29.828 
12:40	46.5	46.5	46.5	84	41.9	0	2	315	0.00	29.828 
12:45	46.4	46.4	46.4	85	42.1	0	2	315	0.00	29.833 
12:50	46.1	46.1	46.1	85	41.8	0	2	315	0.00	29.833 
12:55	46.0	46.0	46.0	85	41.7	0	1	315	0.00	29.833 
13:00	46.0	46.0	46.0	85	41.7	0	1	315	0.00	29.825 
13:05	45.8	45.8	45.8	85	41.6	0	2	315	0.00	29.825 
13:10	45.8	45.8	45.8	85	41.6	0	1	315	0.00	29.825 
13:15	45.8	45.8	45.8	85	41.6	0	0	---	0.00	29.816 
13:20	45.8	45.8	45.8	85	41.6	0	2	315	0.00	29.816 
13:25	45.7	45.7	45.7	85	41.5	0	2	315	0.00	29.816 
13:30	45.7	45.7	45.7	85	41.5	0	0	---	0.00	29.811 
13:35	45.5	45.5	45.5	85	41.3	0	1	315	0.00	29.811 
13:40	45.4	45.4	45.4	85	41.2	0	1	315	0.00	29.811 
13:45	45.4	45.4	45.4	85	41.2	0	1	315	0.00	29.795 
13:50	45.4	45.4	45.4	85	41.2	0	1	315	0.00	29.795 
13:55	45.5	45.5	45.5	84	41.0	0	1	315	0.00	29.795 
14:00	45.5	45.5	45.5	84	41.0	0	1	315	0.00	29.780 
14:05	45.5	45.5	45.5	85	41.3	0	0	---	0.00	29.780 
14:10	45.5	45.5	45.5	85	41.3	0	1	315	0.00	29.780 
14:15	45.4	45.4	45.4	85	41.2	0	0	---	0.00	29.764 
14:20	45.5	45.5	45.5	85	41.3	0	1	315	0.00	29.764 
14:25	45.5	45.5	45.5	85	41.3	0	1	315	0.00	29.764 
14:30	45.5	45.5	45.5	85	41.3	0	1	315	0.00	29.759 
14:35	45.5	45.5	45.5	85	41.3	0	2	315	0.00	29.759 
14:40	45.4	45.4	45.4	85	41.2	0	3	315	0.00	29.759 
14:45	45.4	45.4	45.4	86	41.5	0	2	315	0.00	29.762 
14:50	45.2	45.2	45.2	86	41.3	0	3	315	0.00	29.762 
14:55	45.2	45.2	45.2	86	41.3	1	3	315	0.00	29.762 
15:00	45.1	45.1	45.1	87	41.5	1	4	315	0.00	29.762 
15:05	44.9	44.9	44.9	88	41.6	1	4	90	0.00	29.762 
15:10	44.8	44.8	44.8	88	41.5	0	3	90	0.00	29.762 
15:15	44.5	44.5	44.5	88	41.2	1	3	90	0.00	29.756 
15:20	44.5	44.5	44.5	89	41.5	0	2	90	0.00	29.756 
15:25	44.3	44.3	44.3	89	41.3	1	3	90	0.01	29.756 
15:30	44.2	44.2	44.2	90	41.5	1	3	90	0.00	29.747 
15:35	44.2	44.2	44.2	90	41.5	1	3	90	0.00	29.747 
15:40	44.2	44.2	44.2	91	41.7	1	3	90	0.01	29.747 
15:45	44.2	44.2	44.2	91	41.7	0	3	90	0.00	29.732 
15:50	44.1	44.1	44.1	91	41.6	1	5	90	0.00	29.732 
15:55	43.9	43.9	43.9	91	41.4	0	2	68	0.00	29.732 
16:00	43.8	43.8	43.8	91	41.3	1	4	68	0.00	29.713 
16:05	43.8	43.8	43.8	92	41.6	0	4	22	0.01	29.713 
16:10	43.6	43.6	43.6	92	41.4	1	4	112	0.00	29.713 
16:15	43.6	43.6	43.6	92	41.4	1	4	112	0.00	29.731 
16:20	43.6	43.6	43.6	92	41.4	1	3	112	0.00	29.731 
16:25	43.6	43.6	43.6	92	41.4	1	3	112	0.00	29.731 
16:30	43.6	43.6	43.6	92	41.4	1	3	112	0.00	29.719 
16:35	43.6	43.6	43.6	93	41.7	1	4	90	0.00	29.719 
16:40	43.6	43.6	43.6	93	41.7	2	4	90	0.00	29.719 
16:45	43.6	43.6	43.6	93	41.7	1	4	90	0.00	29.706 
16:50	43.6	43.6	43.6	93	41.7	2	6	90	0.00	29.706 
16:55	43.6	43.6	43.6	93	41.7	2	4	90	0.00	29.706 
17:00	43.6	43.6	43.6	93	41.7	2	5	68	0.00	29.704 
17:05	43.6	43.6	43.6	93	41.7	3	5	112	0.00	29.704 
17:10	43.6	43.6	43.6	94	42.0	2	6	112	0.00	29.704 
17:15	43.8	43.8	43.8	94	42.2	2	4	112	0.00	29.704 
17:20	43.8	43.8	43.8	94	42.2	2	4	90	0.00	29.704 
17:25	43.8	43.8	43.8	94	42.2	2	4	90	0.00	29.704 
17:30	43.8	43.8	43.8	94	42.2	2	5	68	0.00	29.702 
17:35	43.8	43.8	43.8	94	42.2	3	5	112	0.00	29.702 
17:40	43.6	43.6	43.6	94	42.0	2	6	90	0.00	29.702 
17:45	43.6	43.6	43.6	94	42.0	2	5	112	0.00	29.693 
17:50	43.6	43.6	43.6	94	42.0	2	7	68	0.01	29.693 
17:55	43.6	43.6	43.6	94	42.0	2	5	90	0.00	29.693 
18:00	43.8	43.8	43.8	94	42.2	2	4	90	0.00	29.688 
18:05	43.8	43.8	43.8	95	42.5	2	5	112	0.01	29.688 
18:10	43.8	43.8	43.8	95	42.5	2	6	90	0.01	29.688 
18:15	43.8	43.8	43.8	95	42.5	2	6	68	0.00	29.685 
18:20	43.9	43.9	43.9	95	42.6	2	4	68	0.01	29.685 
18:25	43.9	43.9	43.9	95	42.6	2	5	90	0.01	29.685 
18:30	43.9	43.9	43.9	95	42.6	2	5	90	0.01	29.685 
18:35	43.9	43.9	43.9	95	42.6	0	4	90	0.02	29.685 
18:40	43.9	43.9	43.9	95	42.6	0	2	90	0.01	29.685 
18:45	44.1	44.1	44.1	95	42.8	2	5	90	0.01	29.681 
18:50	44.1	44.1	44.1	95	42.8	2	6	90	0.00	29.681 
18:55	44.2	44.2	44.2	95	42.9	3	7	90	0.01	29.681 
19:00	44.2	44.2	44.2	95	42.9	3	5	90	0.00	29.671 
19:05	44.2	44.2	44.2	95	42.9	3	5	90	0.00	29.671 
19:10	44.2	44.2	44.2	95	42.9	1	4	90	0.01	29.671 
19:15	44.2	44.2	44.2	96	43.1	2	6	90	0.00	29.666 
19:20	44.3	44.3	44.3	96	43.2	3	5	112	0.00	29.666 
19:25	44.5	44.5	44.5	96	43.4	2	5	112	0.01	29.666 
19:30	44.6	44.6	44.6	96	43.5	2	5	90	0.01	29.654 
19:35	44.9	44.9	44.9	96	43.8	2	4	90	0.01	29.654 
19:40	45.1	45.1	45.1	96	44.0	2	6	112	0.01	29.654 
19:45	45.4	45.4	45.4	96	44.3	1	4	135	0.01	29.652 
19:50	45.7	45.7	45.7	96	44.6	1	4	112	0.01	29.652 
19:55	46.0	46.0	46.0	96	44.9	2	7	90	0.01	29.652 
20:00	46.1	46.1	46.1	96	45.0	2	7	112	0.01	29.646 
20:05	46.1	46.1	46.1	96	45.0	2	7	68	0.01	29.646 
20:10	46.1	46.1	46.1	96	45.0	1	3	68	0.01	29.646 
20:15	46.1	46.1	46.1	96	45.0	1	4	112	0.01	29.639 
20:20	46.1	46.1	46.1	96	45.0	1	4	112	0.01	29.639 
20:25	46.1	46.1	46.1	96	45.0	1	2	112	0.02	29.639 
20:30	46.1	46.1	46.1	96	45.0	0	3	90	0.02	29.637 
20:35	46.1	46.1	46.1	96	45.0	1	3	112	0.02	29.637 
20:40	46.1	46.1	46.1	96	45.0	0	2	135	0.02	29.637 
20:45	46.1	46.1	46.1	96	45.0	0	2	135	0.02	29.634 
20:50	46.1	46.1	46.1	96	45.0	1	4	112	0.02	29.634 
20:55	46.1	46.1	46.1	96	45.0	0	2	112	0.01	29.634 
21:00	46.1	46.1	46.1	96	45.0	0	2	112	0.02	29.623 
21:05	46.1	46.1	46.1	96	45.0	1	3	112	0.01	29.623 
21:10	46.1	46.1	46.1	96	45.0	1	3	135	0.01	29.623 
21:15	46.1	46.1	46.1	96	45.0	0	2	112	0.01	29.616 
21:20	46.1	46.1	46.1	96	45.0	0	2	135	0.01	29.616 
21:25	46.1	46.1	46.1	96	45.0	0	1	135	0.01	29.616 
21:30	46.0	46.0	46.0	96	44.9	0	2	135	0.01	29.608 
21:35	46.0	46.0	46.0	96	44.9	0	2	135	0.01	29.608 
21:40	46.0	46.0	46.0	96	44.9	1	4	112	0.01	29.608 
21:45	46.0	46.0	46.0	96	44.9	1	4	112	0.00	29.590 
21:50	46.0	46.0	46.0	96	44.9	1	4	112	0.00	29.590 
21:55	46.0	46.0	46.0	96	44.9	1	3	112	0.00	29.590 
22:00	46.0	46.0	46.0	96	44.9	0	2	112	0.00	29.586 
22:05	46.0	46.0	46.0	96	44.9	1	3	112	0.00	29.586 
22:10	46.0	46.0	46.0	96	44.9	0	2	112	0.00	29.586 
22:15	45.8	45.8	45.8	96	44.7	0	3	112	0.00	29.573 
22:20	45.8	45.8	45.8	96	44.7	1	3	112	0.00	29.573 
22:25	45.8	45.8	45.8	96	44.7	0	2	112	0.00	29.573 
22:30	45.8	45.8	45.8	96	44.7	0	2	90	0.00	29.571 
22:35	45.8	45.8	45.8	96	44.7	0	2	135	0.00	29.571 
22:40	45.8	45.8	45.8	96	44.7	0	3	135	0.01	29.571 
22:45	45.8	45.8	45.8	96	44.7	0	3	202	0.00	29.563 
22:50	45.8	45.8	45.8	96	44.7	0	2	90	0.00	29.563 
22:55	45.8	45.8	45.8	96	44.7	0	1	90	0.00	29.563 
23:00	45.7	45.7	45.7	96	44.6	0	1	90	0.00	29.552 
23:05	45.7	45.7	45.7	96	44.6	0	1	90	0.00	29.552 
23:10	45.5	45.5	45.5	96	44.4	0	0	---	0.00	29.552 
23:15	45.4	45.4	45.4	96	44.3	0	1	90	0.00	29.541 
23:20	45.4	45.4	45.4	96	44.3	0	1	90	0.00	29.541 
23:25	45.2	45.2	45.2	96	44.1	0	0	---	0.00	29.541 
23:30	45.1	45.1	45.1	96	44.0	0	0	---	0.00	29.540 
23:35	45.1	45.1	45.1	96	44.0	0	1	90	0.00	29.540 
23:40	44.9	44.9	44.9	96	43.8	0	0	---	0.00	29.540 
23:45	44.9	44.9	44.9	96	43.8	0	0	---	0.00	29.535 
23:50	45.1	45.1	45.1	96	44.0	0	1	90	0.00	29.535 
23:55	45.1	45.1	45.1	96	44.0	0	1	90	0.00	29.535 

CoCoRaHS
IN-AL-39
A2 Web Hosting
Creative Commons License
GoDaddy
search engine by freefind advanced

loaded 2018-11-17 00:33:26 • last modified 2010-11-18 10:43:29
Privacy PolicyDisclaimer
• wx.awcolley.com is powered by PmWiki v.2002016 •
• all content (unless otherwise noted) © 2018 A W Colley